createdAt,value
2022-08-28T00:01:35.139Z,100990.34
2022-08-28T00:06:39.995Z,100997.88
2022-08-28T00:11:43.700Z,101004.38
2022-08-28T00:16:47.827Z,100999.97
2022-08-28T00:21:52.991Z,100995.22
2022-08-28T00:27:13.726Z,100989.81
2022-08-28T00:32:17.272Z,101000.50
2022-08-28T00:37:24.669Z,100988.63
2022-08-28T00:42:28.572Z,101001.03
2022-08-28T00:47:32.006Z,100996.63
2022-08-28T00:52:36.969Z,101001.88
2022-08-28T00:57:43.490Z,100993.44
2022-08-28T01:02:47.205Z,100993.84
2022-08-28T01:07:53.452Z,100990.94
2022-08-28T01:12:58.823Z,100987.63
2022-08-28T01:18:08.227Z,100994.34
2022-08-28T01:23:16.670Z,100994.34
2022-08-28T01:28:21.610Z,100996.53
2022-08-28T01:33:28.284Z,100996.19
2022-08-28T01:38:31.843Z,101013.94
2022-08-28T01:43:36.659Z,101015.78
2022-08-28T01:48:43.190Z,101016.38
2022-08-28T01:53:46.805Z,101019.59
2022-08-28T01:58:52.394Z,101021.44
2022-08-28T02:03:55.873Z,101014.00
2022-08-28T02:09:00.391Z,101028.69
2022-08-28T02:14:05.265Z,101028.75
2022-08-28T02:19:08.702Z,101028.97
2022-08-28T02:24:12.466Z,101026.38
2022-08-28T02:29:18.570Z,101034.00
2022-08-28T02:34:23.032Z,101029.28
2022-08-28T02:39:26.533Z,101031.03
2022-08-28T02:44:31.388Z,101025.31
2022-08-28T02:49:36.294Z,101023.34
2022-08-28T02:54:40.659Z,101017.69
2022-08-28T02:59:45.513Z,101018.66
2022-08-28T03:04:49.376Z,101024.88
2022-08-28T03:09:54.776Z,101027.63
2022-08-28T03:14:59.606Z,101021.44
2022-08-28T03:20:03.367Z,101027.59
2022-08-28T03:25:07.377Z,101016.53
2022-08-28T03:30:12.985Z,101014.13
2022-08-28T03:35:16.506Z,101024.41
2022-08-28T03:40:21.552Z,101029.53
2022-08-28T03:45:26.606Z,101020.13
2022-08-28T03:50:30.213Z,101044.47
2022-08-28T03:55:34.068Z,101031.97
2022-08-28T04:00:41.801Z,101032.78
2022-08-28T04:05:48.467Z,101039.66
2022-08-28T04:10:52.184Z,101040.94
2022-08-28T04:16:02.490Z,101049.03
2022-08-28T04:21:12.142Z,101044.78
2022-08-28T04:26:17.694Z,101055.22
2022-08-28T04:31:32.077Z,101056.22
2022-08-28T04:36:37.018Z,101061.84
2022-08-28T04:41:40.460Z,101068.72
2022-08-28T04:46:45.306Z,101069.75
2022-08-28T04:51:52.068Z,101070.19
2022-08-28T04:56:55.691Z,101069.56
2022-08-28T05:02:00.535Z,101075.13
2022-08-28T05:07:04.155Z,101076.47
2022-08-28T05:12:07.837Z,101068.09
2022-08-28T05:17:13.798Z,101071.69
2022-08-28T05:22:17.232Z,101064.16
2022-08-28T05:27:20.743Z,101077.56
2022-08-28T05:32:25.569Z,101082.66
2022-08-28T05:37:29.126Z,101083.47
2022-08-28T05:42:37.089Z,101083.81
2022-08-28T05:47:43.894Z,101093.09
2022-08-28T05:52:47.414Z,101075.47
2022-08-28T05:57:50.879Z,101079.09
2022-08-28T06:02:55.757Z,101079.53
2022-08-28T06:07:59.343Z,101094.97
2022-08-28T06:13:02.745Z,101099.06
2022-08-28T06:18:07.819Z,101104.69
2022-08-28T06:23:12.033Z,101101.84
2022-08-28T06:28:24.835Z,101114.41
2022-08-28T06:33:29.870Z,101120.72
2022-08-28T06:38:33.323Z,101127.66
2022-08-28T06:43:37.295Z,101125.38
2022-08-28T06:48:42.162Z,101126.22
2022-08-28T06:53:46.770Z,101126.97
2022-08-28T06:58:51.732Z,101136.72
2022-08-28T07:03:59.326Z,101140.22
2022-08-28T07:09:02.999Z,101131.84
2022-08-28T07:14:07.186Z,101139.88
2022-08-28T07:19:12.932Z,101139.41
2022-08-28T07:24:17.376Z,101136.63
2022-08-28T07:29:21.738Z,101138.19
2022-08-28T07:34:27.124Z,101148.13
2022-08-28T07:39:31.087Z,101136.56
2022-08-28T07:44:54.795Z,101138.66
2022-08-28T07:50:01.532Z,101143.00
2022-08-28T07:55:08.681Z,101147.59
2022-08-28T08:00:17.058Z,101142.69
2022-08-28T08:05:21.917Z,101138.22
2022-08-28T08:10:25.417Z,101132.16
2022-08-28T08:15:35.621Z,101141.53
2022-08-28T08:20:40.811Z,101136.38
2022-08-28T08:26:33.656Z,101136.25
2022-08-28T08:31:37.246Z,101131.91
2022-08-28T08:36:45.796Z,101126.59
2022-08-28T08:41:51.762Z,101135.03
2022-08-28T08:47:01.543Z,101144.53
2022-08-28T08:52:22.095Z,101134.53
2022-08-28T08:57:25.690Z,101132.03
2022-08-28T09:02:33.424Z,101133.88
2022-08-28T09:07:41.121Z,101141.41
2022-08-28T09:12:51.194Z,101130.91
2022-08-28T09:17:56.490Z,101130.47
2022-08-28T09:23:01.977Z,101146.63
2022-08-28T09:28:08.114Z,101133.56
2022-08-28T09:33:11.810Z,101133.38
2022-08-28T09:38:21.134Z,101127.00
2022-08-28T09:43:28.223Z,101131.97
2022-08-28T09:48:34.610Z,101132.72
2022-08-28T09:53:55.527Z,101113.00
2022-08-28T09:59:01.842Z,101144.84
2022-08-28T10:04:18.063Z,101132.56
2022-08-28T10:09:29.299Z,101126.63
2022-08-28T10:14:44.341Z,101116.84
2022-08-28T10:19:55.205Z,101134.03
2022-08-28T10:25:15.779Z,101137.31
2022-08-28T10:30:22.970Z,101123.34
2022-08-28T10:35:36.895Z,101112.94
2022-08-28T10:40:51.912Z,101135.72
2022-08-28T10:45:55.910Z,101113.41
2022-08-28T10:51:01.971Z,101133.03
2022-08-28T10:56:10.196Z,101119.75
2022-08-28T11:01:16.072Z,101118.34
2022-08-28T11:06:26.155Z,101117.53
2022-08-28T11:11:44.745Z,101111.00
2022-08-28T11:16:50.106Z,101102.44
2022-08-28T11:21:56.411Z,101109.19
2022-08-28T11:27:13.529Z,101111.81
2022-08-28T11:32:29.833Z,101108.63
2022-08-28T11:37:43.875Z,101109.09
2022-08-28T11:42:50.076Z,101105.66
2022-08-28T11:47:57.702Z,101135.41
2022-08-28T11:53:28.166Z,101119.59
2022-08-28T11:58:39.354Z,101105.66
2022-08-28T12:03:45.895Z,101101.69
2022-08-28T12:09:11.215Z,101102.13
2022-08-28T12:15:07.770Z,101105.78
2022-08-28T12:20:21.244Z,101106.81
2022-08-28T12:25:30.854Z,101104.94
2022-08-28T12:30:41.046Z,101104.22
2022-08-28T12:35:50.391Z,101105.22
2022-08-28T12:40:55.963Z,101088.09
2022-08-28T12:46:02.063Z,101075.34
2022-08-28T12:51:09.158Z,101084.31
2022-08-28T12:56:14.392Z,101091.69
2022-08-28T13:01:25.984Z,101081.59
2022-08-28T13:06:33.989Z,101076.16
2022-08-28T13:11:39.511Z,101087.88
2022-08-28T13:16:46.579Z,101082.94
2022-08-28T13:21:58.536Z,101073.16
2022-08-28T13:27:07.291Z,101074.03
2022-08-28T13:32:17.391Z,101076.97
2022-08-28T13:37:42.948Z,101058.56
2022-08-28T13:42:56.262Z,101066.16
2022-08-28T13:47:59.811Z,101054.03
2022-08-28T13:53:05.943Z,101062.38
2022-08-28T13:58:09.512Z,101075.88
2022-08-28T14:03:30.418Z,101059.66
2022-08-28T14:09:01.911Z,101054.25
2022-08-28T14:14:05.556Z,101069.41
2022-08-28T14:19:09.551Z,101068.28
2022-08-28T14:24:14.689Z,101063.47
2022-08-28T14:29:19.662Z,101064.28
2022-08-28T14:34:24.363Z,101063.13
2022-08-28T14:39:32.226Z,101053.59
2022-08-28T14:44:40.964Z,101055.44
2022-08-28T14:49:44.514Z,101056.19
2022-08-28T14:54:49.340Z,101062.44
2022-08-28T14:59:53.044Z,101072.97
2022-08-28T15:04:56.627Z,101050.91
2022-08-28T15:10:03.683Z,101076.38
2022-08-28T15:15:07.869Z,101063.03
2022-08-28T15:20:12.734Z,101062.03
2022-08-28T15:25:19.100Z,101068.91
2022-08-28T15:30:24.574Z,101061.81
2022-08-28T15:35:28.216Z,101075.16
2022-08-28T15:40:50.860Z,101074.19
2022-08-28T15:45:54.348Z,101062.22
2022-08-28T15:50:58.061Z,101061.56
2022-08-28T15:56:05.283Z,101064.28
2022-08-28T16:01:09.330Z,101063.03
2022-08-28T16:06:14.379Z,101070.91
2022-08-28T16:11:20.599Z,101074.00
2022-08-28T16:16:24.442Z,101066.88
2022-08-28T16:21:31.685Z,101073.09
2022-08-28T16:26:36.776Z,101077.03
2022-08-28T16:31:40.371Z,101092.06
2022-08-28T16:36:43.910Z,101082.47
2022-08-28T16:41:50.215Z,101094.66
2022-08-28T16:46:54.461Z,101096.44
2022-08-28T16:51:57.926Z,101096.44
2022-08-28T16:57:02.782Z,101093.94
2022-08-28T17:02:06.379Z,101098.63
2022-08-28T17:07:10.153Z,101098.97
2022-08-28T17:12:15.326Z,101103.53
2022-08-28T17:17:19.275Z,101100.47
2022-08-28T17:22:34.558Z,101105.13
2022-08-28T17:27:40.795Z,101112.16
2022-08-28T17:32:44.874Z,101111.97
2022-08-28T17:37:50.614Z,101110.13
2022-08-28T17:42:56.750Z,101113.88
2022-08-28T17:48:00.394Z,101119.25
2022-08-28T17:53:03.935Z,101110.84
2022-08-28T17:58:08.758Z,101112.00
2022-08-28T18:03:12.226Z,101126.72
2022-08-28T18:08:15.745Z,101139.75
2022-08-28T18:13:20.582Z,101140.22
2022-08-28T18:18:26.944Z,101145.97
2022-08-28T18:23:40.531Z,101153.22
2022-08-28T18:28:45.335Z,101156.41
2022-08-28T18:33:48.937Z,101161.34
2022-08-28T18:38:52.875Z,101159.94
2022-08-28T18:43:57.754Z,101165.00
2022-08-28T18:49:06.944Z,101164.66
2022-08-28T18:54:10.722Z,101166.16
2022-08-28T18:59:17.212Z,101176.97
2022-08-28T19:04:20.995Z,101181.19
2022-08-28T19:09:29.035Z,101192.88
2022-08-28T19:14:37.822Z,101204.22
2022-08-28T19:19:41.335Z,101201.81
2022-08-28T19:24:45.168Z,101213.44
2022-08-28T19:29:50.322Z,101212.72
2022-08-28T19:34:53.836Z,101215.16
2022-08-28T19:39:57.921Z,101239.47
2022-08-28T19:45:03.016Z,101238.19
2022-08-28T19:50:09.303Z,101245.25
2022-08-28T19:55:18.174Z,101260.88
2022-08-28T20:00:25.529Z,101259.78
2022-08-28T20:05:29.074Z,101263.16
2022-08-28T20:10:33.431Z,101265.91
2022-08-28T20:15:38.683Z,101275.50
2022-08-28T20:20:44.753Z,101275.88
2022-08-28T20:25:48.457Z,101281.84
2022-08-28T20:30:53.399Z,101286.41
2022-08-28T20:36:01.443Z,101297.28
2022-08-28T20:41:06.654Z,101295.81
2022-08-28T20:46:12.342Z,101293.84
2022-08-28T20:51:15.785Z,101299.28
2022-08-28T20:56:19.314Z,101296.16
2022-08-28T21:01:24.345Z,101303.00
2022-08-28T21:06:27.847Z,101313.81
2022-08-28T21:11:31.350Z,101311.25
2022-08-28T21:16:36.675Z,101314.44
2022-08-28T21:21:40.410Z,101309.47
2022-08-28T21:26:45.302Z,101314.78
2022-08-28T21:31:53.234Z,101306.88
2022-08-28T21:36:57.911Z,101307.50
2022-08-28T21:42:01.990Z,101314.19
2022-08-28T21:47:07.075Z,101313.59
2022-08-28T21:52:10.724Z,101313.50
2022-08-28T21:57:14.348Z,101311.03
2022-08-28T22:02:19.303Z,101305.53
2022-08-28T22:07:22.863Z,101312.47
2022-08-28T22:12:26.335Z,101317.31
2022-08-28T22:17:31.352Z,101319.88
2022-08-28T22:22:52.350Z,101314.94
2022-08-28T22:27:56.371Z,101319.06
2022-08-28T22:33:01.385Z,101318.66
2022-08-28T22:38:04.912Z,101318.22
2022-08-28T22:43:08.420Z,101319.34
2022-08-28T22:48:14.403Z,101321.19
2022-08-28T22:53:19.097Z,101322.16
2022-08-28T22:58:22.546Z,101306.19
2022-08-28T23:03:27.564Z,101330.53
2022-08-28T23:08:34.012Z,101315.63
2022-08-28T23:13:37.977Z,101323.53
2022-08-28T23:19:06.710Z,101327.31
2022-08-28T23:24:06.587Z,101333.34
2022-08-28T23:29:10.195Z,101329.44
2022-08-28T23:34:15.027Z,101325.31
2022-08-28T23:39:19.461Z,101325.47
2022-08-28T23:44:24.917Z,101313.72
2022-08-28T23:49:31.236Z,101310.97
2022-08-28T23:54:35.497Z,101320.47
2022-08-28T23:59:38.994Z,101302.81
